createdAt,value
2023-01-26T00:02:22.411Z,346.53
2023-01-26T00:07:28.475Z,346.99
2023-01-26T00:12:34.537Z,347.20
2023-01-26T00:17:40.591Z,347.61
2023-01-26T00:22:46.716Z,348.41
2023-01-26T00:27:52.774Z,348.66
2023-01-26T00:32:58.856Z,348.77
2023-01-26T00:38:04.959Z,348.64
2023-01-26T00:43:11.029Z,348.98
2023-01-26T00:48:17.116Z,349.71
2023-01-26T00:53:23.183Z,348.95
2023-01-26T00:58:29.281Z,349.17
2023-01-26T01:03:35.372Z,349.11
2023-01-26T01:08:41.442Z,349.08
2023-01-26T01:13:47.511Z,349.42
2023-01-26T01:18:53.658Z,349.24
2023-01-26T01:23:59.805Z,349.24
2023-01-26T01:29:05.833Z,348.67
2023-01-26T01:34:11.953Z,348.48
2023-01-26T01:39:18.029Z,348.80
2023-01-26T01:44:24.100Z,349.01
2023-01-26T01:49:30.187Z,348.76
2023-01-26T01:54:36.260Z,349.32
2023-01-26T01:59:42.325Z,349.32
2023-01-26T02:04:48.390Z,349.83
2023-01-26T02:09:54.531Z,349.95
2023-01-26T02:15:00.597Z,349.81
2023-01-26T02:20:06.642Z,350.06
2023-01-26T02:25:12.750Z,350.93
2023-01-26T02:30:18.840Z,351.54
2023-01-26T02:35:24.900Z,351.78
2023-01-26T02:40:31.019Z,352.43
2023-01-26T02:45:37.069Z,353.38
2023-01-26T02:50:43.144Z,353.54
2023-01-26T02:55:49.261Z,354.17
2023-01-26T03:00:55.431Z,354.80
2023-01-26T03:06:01.517Z,354.98
2023-01-26T03:11:07.651Z,355.53
2023-01-26T03:16:13.679Z,355.59
2023-01-26T03:21:19.738Z,356.37
2023-01-26T03:26:25.836Z,356.55
2023-01-26T03:31:31.974Z,357.39
2023-01-26T03:36:37.992Z,357.26
2023-01-26T03:41:44.103Z,357.75
2023-01-26T03:46:50.190Z,358.15
2023-01-26T03:51:56.230Z,358.07
2023-01-26T03:57:02.332Z,358.09
2023-01-26T04:02:09.562Z,358.46
2023-01-26T04:07:16.669Z,357.92
2023-01-26T04:12:23.854Z,358.15
2023-01-26T04:17:31.030Z,358.52
2023-01-26T04:22:38.207Z,358.92
2023-01-26T04:27:45.421Z,359.50
2023-01-26T04:32:52.655Z,360.29
2023-01-26T04:37:59.853Z,360.29
2023-01-26T04:43:07.176Z,360.49
2023-01-26T04:48:14.322Z,360.78
2023-01-26T04:53:20.415Z,361.51
2023-01-26T04:58:26.507Z,361.87
2023-01-26T05:03:32.562Z,362.06
2023-01-26T05:08:38.664Z,361.66
2023-01-26T05:13:44.767Z,362.37
2023-01-26T05:18:50.883Z,361.59
2023-01-26T05:23:57.033Z,361.43
2023-01-26T05:29:03.107Z,361.32
2023-01-26T05:34:09.158Z,361.54
2023-01-26T05:39:15.235Z,361.43
2023-01-26T05:44:21.358Z,361.67
2023-01-26T05:49:27.397Z,361.08
2023-01-26T05:54:33.475Z,360.91
2023-01-26T05:59:39.578Z,361.08
2023-01-26T06:04:45.644Z,360.84
2023-01-26T06:09:51.738Z,360.45
2023-01-26T06:14:57.819Z,361.34
2023-01-26T06:20:03.888Z,361.37
2023-01-26T06:25:09.966Z,361.36
2023-01-26T06:30:16.090Z,361.31
2023-01-26T06:35:22.147Z,361.36
2023-01-26T06:40:28.265Z,361.22
2023-01-26T06:45:34.404Z,360.63
2023-01-26T06:50:40.472Z,361.01
2023-01-26T06:55:46.573Z,361.49
2023-01-26T07:00:52.678Z,360.68
2023-01-26T07:05:58.736Z,360.30
2023-01-26T07:11:05.323Z,360.17
2023-01-26T07:16:10.929Z,360.55
2023-01-26T07:21:16.964Z,360.30
2023-01-26T07:26:23.142Z,360.71
2023-01-26T07:31:29.337Z,360.94
2023-01-26T07:36:35.303Z,360.99
2023-01-26T07:41:41.436Z,360.74
2023-01-26T07:46:47.648Z,360.51
2023-01-26T07:51:53.648Z,361.17
2023-01-26T07:56:59.748Z,361.75
2023-01-26T08:02:05.842Z,362.04
2023-01-26T08:07:11.937Z,362.49
2023-01-26T08:12:17.986Z,363.05
2023-01-26T08:17:24.049Z,362.70
2023-01-26T08:22:30.109Z,362.66
2023-01-26T08:27:36.209Z,362.53
2023-01-26T08:32:42.255Z,362.57
2023-01-26T08:37:48.274Z,363.00
2023-01-26T08:42:54.348Z,362.91
2023-01-26T08:48:00.465Z,363.08
2023-01-26T08:53:06.513Z,362.91
2023-01-26T08:58:13.693Z,362.67
2023-01-26T09:03:20.920Z,363.27
2023-01-26T09:08:28.054Z,363.27
2023-01-26T09:13:35.231Z,362.72
2023-01-26T09:18:42.452Z,363.43
2023-01-26T09:23:49.644Z,363.19
2023-01-26T09:28:56.983Z,362.41
2023-01-26T09:34:04.187Z,362.35
2023-01-26T09:39:11.387Z,362.14
2023-01-26T09:44:18.795Z,362.17
2023-01-26T09:49:26.082Z,361.97
2023-01-26T09:54:33.333Z,362.69
2023-01-26T09:59:40.701Z,363.06
2023-01-26T10:04:47.906Z,363.40
2023-01-26T10:09:55.118Z,363.62
2023-01-26T10:15:02.266Z,363.95
2023-01-26T10:20:09.483Z,364.29
2023-01-26T10:25:16.649Z,365.04
2023-01-26T10:30:23.827Z,364.56
2023-01-26T10:35:31.022Z,364.81
2023-01-26T10:40:38.160Z,364.58
2023-01-26T10:45:45.381Z,364.90
2023-01-26T10:50:52.578Z,365.04
2023-01-26T10:55:59.742Z,365.18
2023-01-26T11:01:06.937Z,364.99
2023-01-26T11:06:14.304Z,365.06
2023-01-26T11:11:21.398Z,364.95
2023-01-26T11:16:28.657Z,365.18
2023-01-26T11:21:35.942Z,365.44
2023-01-26T11:26:42.962Z,365.73
2023-01-26T11:31:50.120Z,365.96
2023-01-26T11:36:57.390Z,365.97
2023-01-26T11:42:04.633Z,365.55
2023-01-26T11:47:11.804Z,366.45
2023-01-26T11:52:19.019Z,367.20
2023-01-26T11:57:26.162Z,367.43
2023-01-26T12:02:33.390Z,367.75
2023-01-26T12:07:40.659Z,367.36
2023-01-26T12:12:47.886Z,368.37
2023-01-26T12:17:55.221Z,368.66
2023-01-26T12:23:02.412Z,368.46
2023-01-26T12:28:09.784Z,368.48
2023-01-26T12:33:17.000Z,369.11
2023-01-26T12:38:24.316Z,369.64
2023-01-26T12:43:31.539Z,369.86
2023-01-26T12:48:38.695Z,369.29
2023-01-26T12:53:45.899Z,370.25
2023-01-26T12:58:53.069Z,370.15
2023-01-26T13:04:00.341Z,370.30
2023-01-26T13:09:07.597Z,370.37
2023-01-26T13:14:14.790Z,370.15
2023-01-26T13:19:22.064Z,370.90
2023-01-26T13:24:29.387Z,371.15
2023-01-26T13:29:36.602Z,371.82
2023-01-26T13:34:43.794Z,371.79
2023-01-26T13:39:50.987Z,371.71
2023-01-26T13:44:58.146Z,371.44
2023-01-26T13:50:05.327Z,371.72
2023-01-26T13:55:12.568Z,371.79
2023-01-26T14:00:19.690Z,372.07
2023-01-26T14:05:26.877Z,372.53
2023-01-26T14:10:34.181Z,372.71
2023-01-26T14:15:41.431Z,372.18
2023-01-26T14:20:48.654Z,372.05
2023-01-26T14:25:55.858Z,372.01
2023-01-26T14:31:03.085Z,371.67
2023-01-26T14:36:10.176Z,371.40
2023-01-26T14:41:17.489Z,371.51
2023-01-26T14:46:24.721Z,371.79
2023-01-26T14:51:31.872Z,371.33
2023-01-26T14:56:39.144Z,371.57
2023-01-26T15:01:46.419Z,370.98
2023-01-26T15:06:53.693Z,371.10
2023-01-26T15:12:00.904Z,371.15
2023-01-26T15:17:08.209Z,371.27
2023-01-26T15:22:15.418Z,370.72
2023-01-26T15:27:22.649Z,370.98
2023-01-26T15:32:29.846Z,370.60
2023-01-26T15:37:37.116Z,370.41
2023-01-26T15:42:44.363Z,370.13
2023-01-26T15:47:51.576Z,369.93
2023-01-26T15:52:58.755Z,369.72
2023-01-26T15:58:06.261Z,369.34
2023-01-26T16:03:13.434Z,369.45
2023-01-26T16:08:20.589Z,369.67
2023-01-26T16:13:27.839Z,369.68
2023-01-26T16:18:35.063Z,369.10
2023-01-26T16:23:42.281Z,369.34
2023-01-26T16:28:49.588Z,369.03
2023-01-26T16:33:56.752Z,369.26
2023-01-26T16:39:03.936Z,368.83
2023-01-26T16:44:11.128Z,368.36
2023-01-26T16:49:18.341Z,368.41
2023-01-26T16:54:25.613Z,368.70
2023-01-26T16:59:33.044Z,368.33
2023-01-26T17:04:40.343Z,368.37
2023-01-26T17:09:47.513Z,368.07
2023-01-26T17:14:54.802Z,368.67
2023-01-26T17:20:17.603Z,368.78
2023-01-26T17:25:09.192Z,368.91
2023-01-26T17:30:16.486Z,368.90
2023-01-26T17:35:24.038Z,368.95
2023-01-26T17:40:31.225Z,369.00
2023-01-26T17:45:38.448Z,369.24
2023-01-26T17:50:45.583Z,368.79
2023-01-26T17:55:52.998Z,369.33
2023-01-26T18:01:00.449Z,368.89
2023-01-26T18:06:07.886Z,369.06
2023-01-26T18:11:15.304Z,369.29
2023-01-26T18:16:22.649Z,369.10
2023-01-26T18:21:29.824Z,369.06
2023-01-26T18:26:36.990Z,369.14
2023-01-26T18:31:44.512Z,369.15
2023-01-26T18:36:52.170Z,369.73
2023-01-26T18:41:59.973Z,369.72
2023-01-26T18:47:08.618Z,369.49
2023-01-26T18:52:16.207Z,369.66
2023-01-26T18:57:23.668Z,369.60
2023-01-26T19:02:31.289Z,369.67
2023-01-26T19:07:38.852Z,369.26
2023-01-26T19:12:46.468Z,369.31
2023-01-26T19:17:54.600Z,370.04
2023-01-26T19:23:01.902Z,370.21
2023-01-26T19:28:09.512Z,370.07
2023-01-26T19:33:17.151Z,370.03
2023-01-26T19:38:24.751Z,370.74
2023-01-26T19:43:32.304Z,370.71
2023-01-26T19:48:39.918Z,370.64
2023-01-26T19:53:47.178Z,370.52
2023-01-26T19:58:54.637Z,371.10
2023-01-26T20:04:02.332Z,371.18
2023-01-26T20:09:09.932Z,371.60
2023-01-26T20:14:17.525Z,372.00
2023-01-26T20:19:24.929Z,371.86
2023-01-26T20:24:32.378Z,371.70
2023-01-26T20:29:39.860Z,371.58
2023-01-26T20:34:47.508Z,371.76
2023-01-26T20:39:55.090Z,371.92
2023-01-26T20:45:02.828Z,372.09
2023-01-26T20:50:10.870Z,372.07
2023-01-26T20:55:17.897Z,371.63
2023-01-26T21:00:25.159Z,371.83
2023-01-26T21:05:32.679Z,372.22
2023-01-26T21:10:39.907Z,371.69
2023-01-26T21:15:47.466Z,371.96
2023-01-26T21:20:57.098Z,372.16
2023-01-26T21:26:02.234Z,372.43
2023-01-26T21:31:09.651Z,372.80
2023-01-26T21:36:16.925Z,372.72
2023-01-26T21:41:24.514Z,372.49
2023-01-26T21:46:31.851Z,373.05
2023-01-26T21:51:39.086Z,373.00
2023-01-26T21:56:46.253Z,372.97
2023-01-26T22:01:53.464Z,372.98
2023-01-26T22:07:00.748Z,373.27
2023-01-26T22:12:07.963Z,373.10
2023-01-26T22:17:15.181Z,373.52
2023-01-26T22:22:22.418Z,373.44
2023-01-26T22:27:29.654Z,373.69
2023-01-26T22:32:36.832Z,374.06
2023-01-26T22:37:44.136Z,374.25
2023-01-26T22:42:51.597Z,374.28
2023-01-26T22:47:58.891Z,374.70
2023-01-26T22:53:06.097Z,375.26
2023-01-26T22:58:13.257Z,375.82
2023-01-26T23:03:20.430Z,376.20
2023-01-26T23:08:27.657Z,376.25
2023-01-26T23:13:34.812Z,376.20
2023-01-26T23:18:41.997Z,376.42
2023-01-26T23:23:49.440Z,376.80
2023-01-26T23:28:56.450Z,375.92
2023-01-26T23:34:03.649Z,375.51
2023-01-26T23:39:10.857Z,376.04
2023-01-26T23:44:18.024Z,376.85
2023-01-26T23:49:25.202Z,377.22
2023-01-26T23:54:32.505Z,377.20
2023-01-26T23:59:39.688Z,377.78
